createdAt,value
2022-10-17T00:00:46.462Z,19.98
2022-10-17T00:03:13.549Z,21.48
2022-10-17T00:05:42.387Z,19.10
2022-10-17T00:08:10.593Z,23.33
2022-10-17T00:10:37.793Z,17.88
2022-10-17T00:13:05.429Z,21.50
2022-10-17T00:15:32.971Z,22.05
2022-10-17T00:18:01.821Z,21.00
2022-10-17T00:20:30.382Z,23.25
2022-10-17T00:22:57.457Z,19.95
2022-10-17T00:25:24.388Z,17.40
2022-10-17T00:27:51.193Z,20.33
2022-10-17T00:30:18.234Z,25.77
2022-10-17T00:32:45.824Z,20.27
2022-10-17T00:35:12.664Z,17.95
2022-10-17T00:37:39.534Z,20.45
2022-10-17T00:40:07.227Z,19.88
2022-10-17T00:42:34.529Z,24.15
2022-10-17T00:45:29.865Z,21.25
2022-10-17T00:48:08.502Z,19.02
2022-10-17T00:50:38.600Z,19.40
2022-10-17T00:53:10.288Z,17.35
2022-10-17T00:55:44.032Z,23.90
2022-10-17T00:58:11.356Z,20.42
2022-10-17T01:00:38.233Z,20.60
2022-10-17T01:03:05.252Z,22.08
2022-10-17T01:05:32.338Z,22.17
2022-10-17T01:07:59.476Z,18.73
2022-10-17T01:10:33.716Z,24.63
2022-10-17T01:13:24.544Z,18.38
2022-10-17T01:16:07.151Z,19.38
2022-10-17T01:18:51.660Z,22.48
2022-10-17T01:21:58.321Z,16.48
2022-10-17T01:25:01.381Z,16.23
2022-10-17T01:27:34.641Z,20.15
2022-10-17T01:30:26.397Z,16.88
2022-10-17T01:33:05.419Z,17.10
2022-10-17T01:35:38.538Z,18.23
2022-10-17T01:38:17.582Z,18.05
2022-10-17T01:41:25.816Z,15.98
2022-10-17T01:44:21.826Z,16.90
2022-10-17T01:46:51.149Z,18.08
2022-10-17T01:49:24.994Z,21.08
2022-10-17T01:52:05.215Z,17.65
2022-10-17T01:55:04.691Z,15.70
2022-10-17T01:57:42.474Z,17.92
2022-10-17T02:00:14.653Z,16.55
2022-10-17T02:02:44.997Z,18.10
2022-10-17T02:05:12.278Z,16.52
2022-10-17T02:07:42.074Z,16.50
2022-10-17T02:10:21.709Z,17.90
2022-10-17T02:13:19.973Z,14.52
2022-10-17T02:16:00.002Z,19.65
2022-10-17T02:18:36.045Z,18.35
2022-10-17T02:21:23.055Z,17.95
2022-10-17T02:24:02.062Z,15.75
2022-10-17T02:26:35.766Z,16.10
2022-10-17T02:29:15.323Z,16.90
2022-10-17T02:31:59.302Z,16.70
2022-10-17T02:34:41.078Z,12.15
2022-10-17T02:37:10.316Z,13.38
2022-10-17T02:39:39.985Z,14.40
2022-10-17T02:42:10.668Z,14.23
2022-10-17T02:45:01.030Z,15.38
2022-10-17T02:47:53.105Z,12.32
2022-10-17T02:53:08.490Z,11.20
2022-10-17T02:55:45.430Z,11.07
2022-10-17T02:58:20.656Z,11.30
2022-10-17T03:00:48.594Z,12.23
2022-10-17T03:03:24.496Z,13.57
2022-10-17T03:05:52.226Z,13.15
2022-10-17T03:08:22.659Z,13.13
2022-10-17T03:10:50.019Z,12.55
2022-10-17T03:13:39.902Z,22.27
2022-10-17T03:16:07.559Z,11.80
2022-10-17T03:18:34.738Z,12.38
2022-10-17T03:21:03.195Z,12.15
2022-10-17T03:23:30.376Z,11.50
2022-10-17T03:25:57.892Z,9.77
2022-10-17T03:28:24.821Z,9.98
2022-10-17T03:30:51.821Z,11.40
2022-10-17T03:33:18.650Z,12.73
2022-10-17T03:35:45.682Z,15.63
2022-10-17T03:38:13.612Z,12.20
2022-10-17T03:40:40.502Z,12.98
2022-10-17T03:43:07.453Z,10.60
2022-10-17T03:45:34.708Z,12.68
2022-10-17T03:48:01.596Z,17.15
2022-10-17T03:50:29.798Z,12.15
2022-10-17T03:52:57.496Z,11.63
2022-10-17T03:55:24.715Z,12.32
2022-10-17T03:57:51.549Z,13.18
2022-10-17T04:00:20.406Z,13.77
2022-10-17T04:02:54.680Z,11.90
2022-10-17T04:05:21.807Z,13.90
2022-10-17T04:07:48.602Z,14.10
2022-10-17T04:10:17.432Z,13.23
2022-10-17T04:12:44.332Z,12.93
2022-10-17T04:15:12.102Z,11.55
2022-10-17T04:17:38.901Z,13.65
2022-10-17T04:20:07.688Z,11.73
2022-10-17T04:22:34.587Z,13.00
2022-10-17T04:25:03.343Z,14.32
2022-10-17T04:27:35.813Z,9.88
2022-10-17T04:30:02.824Z,8.63
2022-10-17T04:32:32.317Z,11.73
2022-10-17T04:35:04.452Z,12.23
2022-10-17T04:37:32.209Z,10.90
2022-10-17T04:40:02.242Z,11.70
2022-10-17T04:42:32.327Z,13.73
2022-10-17T04:44:59.473Z,11.00
2022-10-17T04:47:27.139Z,15.35
2022-10-17T04:49:55.475Z,12.00
2022-10-17T04:52:22.953Z,12.98
2022-10-17T04:54:50.667Z,15.77
2022-10-17T04:57:20.048Z,11.73
2022-10-17T05:00:04.812Z,14.30
2022-10-17T05:02:50.498Z,12.73
2022-10-17T05:05:17.560Z,12.45
2022-10-17T05:07:46.838Z,12.98
2022-10-17T05:10:18.154Z,8.77
2022-10-17T05:12:48.673Z,16.98
2022-10-17T05:15:17.813Z,9.65
2022-10-17T05:17:44.717Z,9.77
2022-10-17T05:20:12.168Z,12.27
2022-10-17T05:22:42.056Z,11.68
2022-10-17T05:25:10.763Z,11.05
2022-10-17T05:27:38.196Z,9.35
2022-10-17T05:30:06.052Z,13.07
2022-10-17T05:32:35.601Z,11.35
2022-10-17T05:35:04.250Z,13.40
2022-10-17T05:37:32.135Z,10.55
2022-10-17T05:40:00.023Z,11.93
2022-10-17T05:42:27.754Z,8.20
2022-10-17T05:44:56.086Z,11.68
2022-10-17T05:47:22.916Z,11.48
2022-10-17T05:49:52.239Z,10.13
2022-10-17T05:52:25.544Z,11.10
2022-10-17T05:55:00.471Z,13.38
2022-10-17T05:57:27.675Z,17.25
2022-10-17T05:59:55.026Z,11.27
2022-10-17T06:02:22.191Z,15.75
2022-10-17T06:04:50.403Z,15.63
2022-10-17T06:07:19.607Z,18.48
2022-10-17T06:09:47.849Z,10.27
2022-10-17T06:12:15.156Z,10.18
2022-10-17T06:14:42.702Z,14.05
2022-10-17T06:17:15.765Z,11.40
2022-10-17T06:19:44.958Z,11.95
2022-10-17T06:22:13.702Z,13.45
2022-10-17T06:24:41.237Z,18.20
2022-10-17T06:27:11.701Z,15.05
2022-10-17T06:29:39.057Z,14.98
2022-10-17T06:32:09.821Z,16.58
2022-10-17T06:34:40.780Z,14.63
2022-10-17T06:37:07.650Z,14.85
2022-10-17T06:39:36.451Z,12.73
2022-10-17T06:42:07.725Z,14.32
2022-10-17T06:44:46.033Z,18.58
2022-10-17T06:47:31.928Z,14.82
2022-10-17T06:50:05.829Z,14.18
2022-10-17T06:52:55.485Z,16.05
2022-10-17T06:55:40.652Z,15.05
2022-10-17T06:58:32.903Z,16.55
2022-10-17T07:01:11.449Z,16.17
2022-10-17T07:03:40.297Z,16.58
2022-10-17T07:06:07.502Z,15.35
2022-10-17T07:08:34.396Z,20.38
2022-10-17T07:11:14.314Z,20.90
2022-10-17T07:13:42.835Z,14.77
2022-10-17T07:16:10.210Z,17.52
2022-10-17T07:18:39.685Z,16.58
2022-10-17T07:21:08.569Z,16.83
2022-10-17T07:23:37.039Z,15.82
2022-10-17T07:26:08.350Z,17.05
2022-10-17T07:28:39.969Z,13.35
2022-10-17T07:31:22.619Z,16.73
2022-10-17T07:33:50.043Z,13.18
2022-10-17T07:36:18.027Z,18.80
2022-10-17T07:38:44.930Z,13.18
2022-10-17T07:41:16.559Z,16.80
2022-10-17T07:43:46.981Z,14.50
2022-10-17T07:46:15.946Z,20.30
2022-10-17T07:48:43.507Z,16.02
2022-10-17T07:51:10.893Z,15.00
2022-10-17T07:53:39.148Z,16.15
2022-10-17T07:56:09.535Z,14.98
2022-10-17T07:58:37.503Z,17.30
2022-10-17T08:01:08.421Z,17.45
2022-10-17T08:03:37.877Z,14.02
2022-10-17T08:06:04.790Z,16.98
2022-10-17T08:08:31.820Z,15.10
2022-10-17T08:11:07.336Z,13.57
2022-10-17T08:16:07.966Z,14.85
2022-10-17T08:18:36.150Z,12.50
2022-10-17T08:21:06.331Z,13.45
2022-10-17T08:23:33.234Z,10.90
2022-10-17T08:26:01.149Z,11.93
2022-10-17T08:28:28.268Z,12.35
2022-10-17T08:31:12.242Z,12.27
2022-10-17T08:33:39.527Z,14.07
2022-10-17T08:36:08.778Z,15.20
2022-10-17T08:38:39.398Z,19.08
2022-10-17T08:41:34.497Z,15.77
2022-10-17T08:44:34.443Z,15.23
2022-10-17T08:47:08.725Z,12.32
2022-10-17T08:49:48.892Z,11.02
2022-10-17T08:52:33.206Z,12.52
2022-10-17T08:55:00.314Z,11.63
2022-10-17T08:57:28.943Z,9.85
2022-10-17T08:59:56.809Z,9.77
2022-10-17T09:02:44.879Z,13.82
2022-10-17T09:05:33.722Z,10.40
2022-10-17T09:08:10.498Z,8.85
2022-10-17T09:10:55.944Z,9.50
2022-10-17T09:13:47.819Z,9.25
2022-10-17T09:16:46.449Z,8.45
2022-10-17T09:19:23.054Z,8.20
2022-10-17T09:22:00.838Z,7.65
2022-10-17T09:24:47.915Z,6.70
2022-10-17T09:27:35.951Z,6.68
2022-10-17T09:30:40.492Z,5.78
2022-10-17T09:33:35.058Z,7.85
2022-10-17T09:36:05.733Z,7.25
2022-10-17T09:38:44.595Z,7.18
2022-10-17T09:41:46.524Z,3.88
2022-10-17T09:44:49.142Z,6.07
2022-10-17T09:47:39.351Z,6.60
2022-10-17T09:50:22.636Z,4.95
2022-10-17T09:52:51.154Z,5.30
2022-10-17T09:55:32.504Z,7.30
2022-10-17T09:58:04.247Z,3.35
2022-10-17T10:00:43.191Z,5.20
2022-10-17T10:03:13.028Z,7.55
2022-10-17T10:05:40.904Z,9.13
2022-10-17T10:08:17.825Z,5.70
2022-10-17T10:10:45.254Z,6.85
2022-10-17T10:13:15.142Z,7.10
2022-10-17T10:15:48.031Z,6.43
2022-10-17T10:18:26.848Z,9.38
2022-10-17T10:21:03.005Z,6.88
2022-10-17T10:23:29.887Z,7.53
2022-10-17T10:25:59.650Z,4.32
2022-10-17T10:28:33.390Z,7.43
2022-10-17T10:31:04.771Z,6.60
2022-10-17T10:33:34.315Z,5.55
2022-10-17T10:36:04.323Z,6.78
2022-10-17T10:38:33.454Z,8.30
2022-10-17T10:41:09.319Z,6.68
2022-10-17T10:43:45.984Z,7.70
2022-10-17T10:46:26.675Z,8.40
2022-10-17T10:48:55.513Z,10.48
2022-10-17T10:51:45.940Z,7.22
2022-10-17T10:54:26.383Z,6.05
2022-10-17T10:56:56.605Z,5.60
2022-10-17T10:59:31.690Z,13.20
2022-10-17T11:02:24.267Z,9.20
2022-10-17T11:04:59.091Z,5.82
2022-10-17T11:08:05.191Z,7.80
2022-10-17T11:10:59.734Z,5.15
2022-10-17T11:13:34.243Z,6.38
2022-10-17T11:16:23.910Z,6.07
2022-10-17T11:19:14.601Z,6.38
2022-10-17T11:21:44.970Z,5.68
2022-10-17T11:24:31.409Z,5.65
2022-10-17T11:27:04.915Z,5.60
2022-10-17T11:29:34.788Z,4.57
2022-10-17T11:32:18.050Z,6.50
2022-10-17T11:34:49.603Z,5.03
2022-10-17T11:37:21.681Z,6.53
2022-10-17T11:40:02.336Z,7.38
2022-10-17T11:42:41.370Z,4.32
2022-10-17T11:45:15.174Z,4.10
2022-10-17T11:47:50.516Z,5.15
2022-10-17T11:53:13.292Z,5.05
2022-10-17T11:55:42.130Z,6.75
2022-10-17T11:58:33.869Z,3.70
2022-10-17T12:01:12.477Z,4.32
2022-10-17T12:03:45.114Z,9.13
2022-10-17T12:06:19.292Z,6.55
2022-10-17T12:09:26.115Z,5.63
2022-10-17T12:14:43.720Z,7.45
2022-10-17T12:17:25.638Z,5.28
2022-10-17T12:19:52.591Z,5.68
2022-10-17T12:22:22.620Z,6.72
2022-10-17T12:24:56.902Z,9.82
2022-10-17T12:27:29.832Z,6.82
2022-10-17T12:30:27.050Z,6.00
2022-10-17T12:33:08.004Z,5.95
2022-10-17T12:35:37.609Z,8.95
2022-10-17T12:38:22.494Z,6.57
2022-10-17T12:40:57.549Z,6.35
2022-10-17T12:43:27.531Z,4.85
2022-10-17T12:46:01.644Z,4.60
2022-10-17T12:48:34.502Z,8.95
2022-10-17T12:54:01.973Z,3.88
2022-10-17T12:56:44.668Z,5.60
2022-10-17T12:59:25.075Z,7.47
2022-10-17T13:02:00.016Z,6.18
2022-10-17T13:04:27.911Z,6.88
2022-10-17T13:07:01.032Z,5.95
2022-10-17T13:09:38.462Z,4.80
2022-10-17T13:12:13.797Z,4.80
2022-10-17T13:14:42.811Z,10.57
2022-10-17T13:17:25.525Z,6.13
2022-10-17T13:19:52.808Z,4.28
2022-10-17T13:22:27.138Z,7.68
2022-10-17T13:25:16.743Z,5.07
2022-10-17T13:27:44.284Z,4.50
2022-10-17T13:30:33.847Z,7.60
2022-10-17T13:33:01.492Z,5.00
2022-10-17T13:35:59.071Z,6.38
2022-10-17T13:38:28.822Z,8.13
2022-10-17T13:41:02.017Z,7.75
2022-10-17T13:43:43.368Z,6.70
2022-10-17T13:46:37.828Z,6.07
2022-10-17T13:49:25.913Z,6.50
2022-10-17T13:51:55.947Z,6.03
2022-10-17T13:54:34.501Z,4.82
2022-10-17T13:57:02.603Z,8.10
2022-10-17T13:59:38.780Z,6.20
2022-10-17T14:02:12.532Z,7.07
2022-10-17T14:05:04.091Z,7.90
2022-10-17T14:07:58.060Z,3.50
2022-10-17T14:10:35.452Z,8.15
2022-10-17T14:13:04.941Z,4.40
2022-10-17T14:15:35.083Z,3.42
2022-10-17T14:18:08.358Z,3.67
2022-10-17T14:23:31.037Z,6.90
2022-10-17T14:26:10.585Z,5.70
2022-10-17T14:28:38.591Z,3.53
2022-10-17T14:31:29.665Z,2.70
2022-10-17T14:33:57.371Z,7.75
2022-10-17T14:36:39.393Z,4.30
2022-10-17T14:39:14.133Z,3.40
2022-10-17T14:41:44.488Z,4.93
2022-10-17T14:44:32.578Z,5.72
2022-10-17T14:47:42.090Z,5.55
2022-10-17T14:50:29.696Z,8.43
2022-10-17T14:53:02.517Z,5.53
2022-10-17T14:55:30.849Z,5.05
2022-10-17T14:57:57.974Z,10.30
2022-10-17T15:00:25.492Z,6.22
2022-10-17T15:02:55.018Z,5.05
2022-10-17T15:05:23.263Z,5.05
2022-10-17T15:07:50.110Z,5.10
2022-10-17T15:10:33.968Z,5.07
2022-10-17T15:13:26.810Z,5.38
2022-10-17T15:15:51.973Z,4.82
2022-10-17T15:18:19.214Z,4.35
2022-10-17T15:20:45.985Z,5.28
2022-10-17T15:23:12.815Z,7.43
2022-10-17T15:25:39.971Z,5.13
2022-10-17T15:28:06.875Z,9.88
2022-10-17T15:30:36.451Z,5.20
2022-10-17T15:33:03.770Z,8.35
2022-10-17T15:35:31.071Z,4.30
2022-10-17T15:37:58.270Z,6.40
2022-10-17T15:40:30.335Z,4.75
2022-10-17T15:42:57.309Z,4.95
2022-10-17T15:45:24.626Z,5.93
2022-10-17T15:47:54.716Z,9.25
2022-10-17T15:50:21.923Z,6.82
2022-10-17T15:52:51.062Z,9.30
2022-10-17T15:55:18.501Z,6.85
2022-10-17T15:57:47.048Z,7.75
2022-10-17T16:00:31.811Z,9.73
2022-10-17T16:02:58.978Z,7.78
2022-10-17T16:05:26.442Z,7.30
2022-10-17T16:07:53.959Z,8.93
2022-10-17T16:10:21.495Z,9.98
2022-10-17T16:12:50.086Z,7.13
2022-10-17T16:15:28.000Z,10.05
2022-10-17T16:17:57.130Z,6.63
2022-10-17T16:20:24.915Z,8.40
2022-10-17T16:22:59.826Z,9.38
2022-10-17T16:25:28.746Z,5.75
2022-10-17T16:27:57.301Z,6.47
2022-10-17T16:30:26.042Z,6.88
2022-10-17T16:32:54.209Z,6.75
2022-10-17T16:35:33.234Z,5.68
2022-10-17T16:38:04.236Z,6.30
2022-10-17T16:40:31.075Z,6.82
2022-10-17T16:42:57.956Z,6.22
2022-10-17T16:45:24.771Z,5.20
2022-10-17T16:47:53.059Z,10.05
2022-10-17T16:50:20.023Z,6.13
2022-10-17T16:52:46.991Z,6.93
2022-10-17T16:55:13.912Z,10.57
2022-10-17T17:00:16.607Z,6.95
2022-10-17T17:02:43.893Z,9.23
2022-10-17T17:05:11.069Z,8.18
2022-10-17T17:07:38.099Z,10.55
2022-10-17T17:10:06.265Z,7.25
2022-10-17T17:12:35.322Z,8.82
2022-10-17T17:15:03.032Z,8.10
2022-10-17T17:17:30.814Z,11.43
2022-10-17T17:20:15.270Z,10.82
2022-10-17T17:22:42.028Z,10.63
2022-10-17T17:25:09.171Z,14.45
2022-10-17T17:27:35.967Z,9.48
2022-10-17T17:30:02.826Z,10.77
2022-10-17T17:32:29.592Z,9.25
2022-10-17T17:34:56.437Z,5.00
2022-10-17T17:37:23.217Z,7.78
2022-10-17T17:39:50.022Z,8.15
2022-10-17T17:42:16.898Z,8.57
2022-10-17T17:44:43.962Z,10.57
2022-10-17T17:47:10.847Z,5.97
2022-10-17T17:49:37.843Z,11.40
2022-10-17T17:52:04.752Z,8.65
2022-10-17T17:54:31.696Z,7.05
2022-10-17T17:56:58.541Z,10.45
2022-10-17T17:59:25.460Z,10.82
2022-10-17T18:01:52.283Z,11.85
2022-10-17T18:04:19.137Z,10.82
2022-10-17T18:06:45.968Z,14.77
2022-10-17T18:09:12.838Z,11.25
2022-10-17T18:11:39.720Z,11.43
2022-10-17T18:14:11.289Z,11.73
2022-10-17T18:16:38.226Z,11.93
2022-10-17T18:19:07.315Z,11.68
2022-10-17T18:21:35.384Z,13.60
2022-10-17T18:24:04.494Z,11.57
2022-10-17T18:26:31.927Z,11.75
2022-10-17T18:28:58.760Z,10.85
2022-10-17T18:31:28.615Z,11.23
2022-10-17T18:33:58.020Z,11.60
2022-10-17T18:36:26.211Z,13.32
2022-10-17T18:38:53.830Z,18.33
2022-10-17T18:41:23.985Z,11.98
2022-10-17T18:43:52.242Z,12.65
2022-10-17T18:46:21.703Z,15.30
2022-10-17T18:48:50.060Z,12.07
2022-10-17T18:51:19.400Z,10.23
2022-10-17T18:53:48.743Z,9.57
2022-10-17T18:56:16.216Z,12.45
2022-10-17T18:58:43.106Z,12.90
2022-10-17T19:01:21.519Z,11.90
2022-10-17T19:03:50.607Z,12.70
2022-10-17T19:06:19.750Z,14.32
2022-10-17T19:08:47.682Z,13.68
2022-10-17T19:11:18.447Z,9.95
2022-10-17T19:16:37.770Z,14.73
2022-10-17T19:19:18.370Z,14.13
2022-10-17T19:21:45.569Z,10.77
2022-10-17T19:24:16.016Z,10.07
2022-10-17T19:26:44.018Z,15.50
2022-10-17T19:29:14.428Z,12.23
2022-10-17T19:31:41.501Z,12.38
2022-10-17T19:34:09.113Z,17.15
2022-10-17T19:36:36.195Z,13.48
2022-10-17T19:39:10.433Z,10.02
2022-10-17T19:41:37.504Z,15.65
2022-10-17T19:44:04.293Z,13.43
2022-10-17T19:46:33.855Z,10.15
2022-10-17T19:49:01.865Z,14.27
2022-10-17T19:51:29.294Z,14.07
2022-10-17T19:53:57.926Z,13.57
2022-10-17T19:56:25.989Z,18.05
2022-10-17T19:58:54.315Z,12.25
2022-10-17T20:01:27.169Z,17.65
2022-10-17T20:03:54.546Z,12.70
2022-10-17T20:06:22.181Z,14.35
2022-10-17T20:08:49.739Z,14.77
2022-10-17T20:11:22.621Z,14.40
2022-10-17T20:13:49.824Z,14.55
2022-10-17T20:16:20.471Z,16.58
2022-10-17T20:18:51.248Z,15.05
2022-10-17T20:21:24.591Z,13.93
2022-10-17T20:23:51.717Z,13.15
2022-10-17T20:26:38.627Z,17.42
2022-10-17T20:29:11.707Z,16.88
2022-10-17T20:31:39.827Z,20.27
2022-10-17T20:34:06.682Z,19.63
2022-10-17T20:36:37.430Z,15.55
2022-10-17T20:39:05.541Z,14.07
2022-10-17T20:41:32.806Z,18.70
2022-10-17T20:43:59.853Z,14.77
2022-10-17T20:46:48.726Z,17.65
2022-10-17T20:49:16.182Z,15.77
2022-10-17T20:51:43.427Z,13.50
2022-10-17T20:54:11.640Z,16.35
2022-10-17T20:56:38.862Z,19.25
2022-10-17T20:59:10.201Z,18.08
2022-10-17T21:01:37.118Z,13.82
2022-10-17T21:04:21.757Z,16.15
2022-10-17T21:06:52.165Z,15.63
2022-10-17T21:09:19.870Z,17.20
2022-10-17T21:11:48.146Z,18.92
2022-10-17T21:14:16.665Z,16.73
2022-10-17T21:16:43.993Z,20.95
2022-10-17T21:19:12.064Z,16.75
2022-10-17T21:21:41.668Z,19.20
2022-10-17T21:24:14.545Z,16.80
2022-10-17T21:26:42.704Z,16.55
2022-10-17T21:29:11.560Z,17.27
2022-10-17T21:31:40.619Z,17.55
2022-10-17T21:34:11.757Z,16.60
2022-10-17T21:36:39.104Z,15.75
2022-10-17T21:41:38.438Z,21.58
2022-10-17T21:44:15.659Z,17.63
2022-10-17T21:46:43.079Z,18.92
2022-10-17T21:49:12.160Z,14.90
2022-10-17T21:51:39.383Z,20.08
2022-10-17T21:54:06.549Z,21.17
2022-10-17T21:56:34.774Z,20.02
2022-10-17T21:59:01.627Z,18.27
2022-10-17T22:01:31.917Z,26.10
2022-10-17T22:04:01.783Z,20.02
2022-10-17T22:06:40.555Z,16.48
2022-10-17T22:09:34.145Z,21.77
2022-10-17T22:12:00.998Z,22.20
2022-10-17T22:14:29.795Z,22.70
2022-10-17T22:16:56.682Z,20.58
2022-10-17T22:19:26.363Z,16.38
2022-10-17T22:21:54.416Z,26.92
2022-10-17T22:26:54.191Z,20.60
2022-10-17T22:29:21.097Z,28.45
2022-10-17T22:31:47.981Z,24.75
2022-10-17T22:34:16.035Z,17.27
2022-10-17T22:36:43.867Z,18.20
2022-10-17T22:39:11.259Z,18.67
2022-10-17T22:41:38.288Z,21.35
2022-10-17T22:44:05.194Z,20.70
2022-10-17T22:46:32.372Z,20.50
2022-10-17T22:48:59.242Z,19.60
2022-10-17T22:51:26.327Z,19.10
2022-10-17T22:53:53.091Z,27.67
2022-10-17T22:56:21.757Z,21.15
2022-10-17T22:58:48.724Z,20.73
2022-10-17T23:01:21.869Z,23.30
2022-10-17T23:03:48.919Z,22.88
2022-10-17T23:06:16.176Z,20.45
2022-10-17T23:08:43.807Z,26.05
2022-10-17T23:11:12.461Z,24.77
2022-10-17T23:13:40.742Z,22.80
2022-10-17T23:16:08.550Z,19.83
2022-10-17T23:18:36.678Z,20.75
2022-10-17T23:21:03.819Z,17.38
2022-10-17T23:23:30.726Z,20.73
2022-10-17T23:26:07.913Z,25.25
2022-10-17T23:28:35.758Z,23.10
2022-10-17T23:31:17.481Z,21.85
2022-10-17T23:33:45.768Z,26.90
2022-10-17T23:36:14.398Z,21.20
2022-10-17T23:38:42.675Z,19.30
2022-10-17T23:41:10.001Z,21.02
2022-10-17T23:43:37.296Z,23.30
2022-10-17T23:46:06.102Z,22.92
2022-10-17T23:48:33.427Z,22.75
2022-10-17T23:51:00.453Z,19.02
2022-10-17T23:53:27.392Z,22.40
2022-10-17T23:55:54.248Z,28.10
2022-10-17T23:58:21.389Z,21.08
